sensor_id;sensor_type;location;lat;lon;timestamp;temperature;humidity
20610;DHT22;10463;52.378;9.688;2023-10-31T00:00:06;24.50;30.30
20610;DHT22;10463;52.378;9.688;2023-10-31T00:02:51;24.50;30.40
20610;DHT22;10463;52.378;9.688;2023-10-31T00:05:35;24.50;30.40
20610;DHT22;10463;52.378;9.688;2023-10-31T00:08:20;24.50;30.40
20610;DHT22;10463;52.378;9.688;2023-10-31T00:11:05;24.50;30.40
20610;DHT22;10463;52.378;9.688;2023-10-31T00:13:51;24.50;30.30
20610;DHT22;10463;52.378;9.688;2023-10-31T00:16:36;24.50;30.30
20610;DHT22;10463;52.378;9.688;2023-10-31T00:19:20;24.50;30.30
20610;DHT22;10463;52.378;9.688;2023-10-31T00:22:05;24.50;30.30
20610;DHT22;10463;52.378;9.688;2023-10-31T00:24:49;24.50;30.40
20610;DHT22;10463;52.378;9.688;2023-10-31T00:27:34;24.50;30.30
20610;DHT22;10463;52.378;9.688;2023-10-31T00:30:20;24.50;30.40
20610;DHT22;10463;52.378;9.688;2023-10-31T00:33:05;24.50;30.40
20610;DHT22;10463;52.378;9.688;2023-10-31T00:35:50;24.50;30.40
20610;DHT22;10463;52.378;9.688;2023-10-31T00:38:34;24.40;30.30
20610;DHT22;10463;52.378;9.688;2023-10-31T00:41:19;24.50;30.40
20610;DHT22;10463;52.378;9.688;2023-10-31T00:44:04;24.50;30.30
20610;DHT22;10463;52.378;9.688;2023-10-31T00:46:50;24.50;30.40
20610;DHT22;10463;52.378;9.688;2023-10-31T00:49:34;24.50;30.40
20610;DHT22;10463;52.378;9.688;2023-10-31T00:52:21;24.40;30.20
20610;DHT22;10463;52.378;9.688;2023-10-31T00:57:48;24.40;30.30
20610;DHT22;10463;52.378;9.688;2023-10-31T01:00:32;24.50;30.40
20610;DHT22;10463;52.378;9.688;2023-10-31T01:03:20;24.40;30.30
20610;DHT22;10463;52.378;9.688;2023-10-31T01:06:04;24.40;30.90
20610;DHT22;10463;52.378;9.688;2023-10-31T01:08:49;24.50;30.40
20610;DHT22;10463;52.378;9.688;2023-10-31T01:11:34;24.40;30.30
20610;DHT22;10463;52.378;9.688;2023-10-31T01:14:18;24.50;30.40
20610;DHT22;10463;52.378;9.688;2023-10-31T01:17:03;24.40;30.30
20610;DHT22;10463;52.378;9.688;2023-10-31T01:19:49;24.40;30.30
20610;DHT22;10463;52.378;9.688;2023-10-31T01:22:34;24.50;30.40
20610;DHT22;10463;52.378;9.688;2023-10-31T01:25:18;24.40;30.30
20610;DHT22;10463;52.378;9.688;2023-10-31T01:28:03;24.50;30.40
20610;DHT22;10463;52.378;9.688;2023-10-31T01:30:48;24.50;30.40
20610;DHT22;10463;52.378;9.688;2023-10-31T01:33:32;24.40;30.30
20610;DHT22;10463;52.378;9.688;2023-10-31T01:36:19;24.40;30.30
20610;DHT22;10463;52.378;9.688;2023-10-31T01:39:08;24.40;30.30
20610;DHT22;10463;52.378;9.688;2023-10-31T01:41:53;24.50;30.40
20610;DHT22;10463;52.378;9.688;2023-10-31T01:44:39;24.40;30.30
20610;DHT22;10463;52.378;9.688;2023-10-31T01:47:24;24.50;30.40
20610;DHT22;10463;52.378;9.688;2023-10-31T01:50:09;24.50;30.40
20610;DHT22;10463;52.378;9.688;2023-10-31T01:52:56;24.50;30.40
20610;DHT22;10463;52.378;9.688;2023-10-31T01:55:41;24.40;30.30
20610;DHT22;10463;52.378;9.688;2023-10-31T01:58:30;24.50;30.40
20610;DHT22;10463;52.378;9.688;2023-10-31T02:01:15;24.40;30.30
20610;DHT22;10463;52.378;9.688;2023-10-31T02:04:00;24.40;30.30
20610;DHT22;10463;52.378;9.688;2023-10-31T02:06:46;24.40;30.30
20610;DHT22;10463;52.378;9.688;2023-10-31T02:09:33;24.40;30.30
20610;DHT22;10463;52.378;9.688;2023-10-31T02:12:31;24.40;30.30
20610;DHT22;10463;52.378;9.688;2023-10-31T02:15:17;24.40;30.30
20610;DHT22;10463;52.378;9.688;2023-10-31T02:18:01;24.40;30.30
20610;DHT22;10463;52.378;9.688;2023-10-31T02:20:46;24.40;30.30
20610;DHT22;10463;52.378;9.688;2023-10-31T02:23:32;24.40;30.30
20610;DHT22;10463;52.378;9.688;2023-10-31T02:26:16;24.40;30.30
20610;DHT22;10463;52.378;9.688;2023-10-31T02:29:02;24.40;30.40
20610;DHT22;10463;52.378;9.688;2023-10-31T02:31:47;24.40;30.40
20610;DHT22;10463;52.378;9.688;2023-10-31T02:34:31;24.40;30.30
20610;DHT22;10463;52.378;9.688;2023-10-31T02:37:16;24.40;30.30
20610;DHT22;10463;52.378;9.688;2023-10-31T02:40:03;24.40;30.40
20610;DHT22;10463;52.378;9.688;2023-10-31T02:42:48;24.40;30.40
20610;DHT22;10463;52.378;9.688;2023-10-31T02:45:32;24.40;30.40
20610;DHT22;10463;52.378;9.688;2023-10-31T02:48:18;24.40;30.40
20610;DHT22;10463;52.378;9.688;2023-10-31T02:51:04;24.40;30.40
20610;DHT22;10463;52.378;9.688;2023-10-31T02:53:49;24.40;30.40
20610;DHT22;10463;52.378;9.688;2023-10-31T02:56:35;24.40;30.40
20610;DHT22;10463;52.378;9.688;2023-10-31T02:59:19;24.40;30.40
20610;DHT22;10463;52.378;9.688;2023-10-31T03:02:04;24.40;30.40
20610;DHT22;10463;52.378;9.688;2023-10-31T03:04:48;24.40;30.40
20610;DHT22;10463;52.378;9.688;2023-10-31T03:07:33;24.40;30.40
20610;DHT22;10463;52.378;9.688;2023-10-31T03:10:17;24.40;30.40
20610;DHT22;10463;52.378;9.688;2023-10-31T03:13:03;24.40;30.40
20610;DHT22;10463;52.378;9.688;2023-10-31T03:15:49;24.40;30.40
20610;DHT22;10463;52.378;9.688;2023-10-31T03:18:33;24.40;30.40
20610;DHT22;10463;52.378;9.688;2023-10-31T03:21:18;24.40;30.40
20610;DHT22;10463;52.378;9.688;2023-10-31T03:24:04;24.30;30.30
20610;DHT22;10463;52.378;9.688;2023-10-31T03:26:49;24.30;30.30
20610;DHT22;10463;52.378;9.688;2023-10-31T03:29:35;24.40;30.40
20610;DHT22;10463;52.378;9.688;2023-10-31T03:32:19;24.40;30.40
20610;DHT22;10463;52.378;9.688;2023-10-31T03:35:05;24.40;30.40
20610;DHT22;10463;52.378;9.688;2023-10-31T03:37:50;24.40;30.40
20610;DHT22;10463;52.378;9.688;2023-10-31T03:40:34;24.40;30.40
20610;DHT22;10463;52.378;9.688;2023-10-31T03:43:19;24.40;30.40
20610;DHT22;10463;52.378;9.688;2023-10-31T03:46:06;24.30;30.40
20610;DHT22;10463;52.378;9.688;2023-10-31T03:48:51;24.40;30.40
20610;DHT22;10463;52.378;9.688;2023-10-31T03:51:35;24.30;30.40
20610;DHT22;10463;52.378;9.688;2023-10-31T03:54:20;24.30;30.30
20610;DHT22;10463;52.378;9.688;2023-10-31T03:57:05;24.40;30.40
20610;DHT22;10463;52.378;9.688;2023-10-31T03:59:50;24.30;30.40
20610;DHT22;10463;52.378;9.688;2023-10-31T04:02:35;24.30;30.30
20610;DHT22;10463;52.378;9.688;2023-10-31T04:05:20;24.30;31.00
20610;DHT22;10463;52.378;9.688;2023-10-31T04:08:05;24.30;30.30
20610;DHT22;10463;52.378;9.688;2023-10-31T04:10:50;24.30;30.30
20610;DHT22;10463;52.378;9.688;2023-10-31T04:13:34;24.30;30.30
20610;DHT22;10463;52.378;9.688;2023-10-31T04:16:19;24.30;30.30
20610;DHT22;10463;52.378;9.688;2023-10-31T04:19:05;24.30;30.30
20610;DHT22;10463;52.378;9.688;2023-10-31T04:21:50;24.30;30.20
20610;DHT22;10463;52.378;9.688;2023-10-31T04:24:34;24.30;30.20
20610;DHT22;10463;52.378;9.688;2023-10-31T04:27:19;24.30;30.20
20610;DHT22;10463;52.378;9.688;2023-10-31T04:30:05;24.30;30.20
20610;DHT22;10463;52.378;9.688;2023-10-31T04:32:50;24.30;30.20
20610;DHT22;10463;52.378;9.688;2023-10-31T04:35:36;24.30;30.20
20610;DHT22;10463;52.378;9.688;2023-10-31T04:38:21;24.30;30.20
20610;DHT22;10463;52.378;9.688;2023-10-31T04:41:07;24.30;30.20
20610;DHT22;10463;52.378;9.688;2023-10-31T04:43:52;24.30;30.20
20610;DHT22;10463;52.378;9.688;2023-10-31T04:46:36;24.30;30.20
20610;DHT22;10463;52.378;9.688;2023-10-31T04:49:21;24.30;30.20
20610;DHT22;10463;52.378;9.688;2023-10-31T04:52:07;24.30;30.20
20610;DHT22;10463;52.378;9.688;2023-10-31T04:54:51;24.30;30.20
20610;DHT22;10463;52.378;9.688;2023-10-31T04:57:36;24.30;30.10
20610;DHT22;10463;52.378;9.688;2023-10-31T05:00:21;24.30;30.10
20610;DHT22;10463;52.378;9.688;2023-10-31T05:03:05;24.30;30.10
20610;DHT22;10463;52.378;9.688;2023-10-31T05:05:50;24.30;30.20
20610;DHT22;10463;52.378;9.688;2023-10-31T05:08:36;24.30;30.10
20610;DHT22;10463;52.378;9.688;2023-10-31T05:11:20;24.30;30.10
20610;DHT22;10463;52.378;9.688;2023-10-31T05:14:07;24.30;30.10
20610;DHT22;10463;52.378;9.688;2023-10-31T05:16:52;24.20;30.00
20610;DHT22;10463;52.378;9.688;2023-10-31T05:19:36;24.20;30.00
20610;DHT22;10463;52.378;9.688;2023-10-31T05:22:21;24.30;30.10
20610;DHT22;10463;52.378;9.688;2023-10-31T05:25:07;24.20;30.00
20610;DHT22;10463;52.378;9.688;2023-10-31T05:27:51;24.20;30.00
20610;DHT22;10463;52.378;9.688;2023-10-31T05:30:36;24.20;30.00
20610;DHT22;10463;52.378;9.688;2023-10-31T05:33:21;24.20;30.00
20610;DHT22;10463;52.378;9.688;2023-10-31T05:36:18;24.30;30.00
20610;DHT22;10463;52.378;9.688;2023-10-31T05:39:04;24.20;30.00
20610;DHT22;10463;52.378;9.688;2023-10-31T05:41:50;24.30;30.00
20610;DHT22;10463;52.378;9.688;2023-10-31T05:44:34;24.20;29.90
20610;DHT22;10463;52.378;9.688;2023-10-31T05:47:19;24.20;29.90
20610;DHT22;10463;52.378;9.688;2023-10-31T05:50:04;24.20;29.90
20610;DHT22;10463;52.378;9.688;2023-10-31T05:52:50;24.20;29.90
20610;DHT22;10463;52.378;9.688;2023-10-31T05:55:34;24.20;29.90
20610;DHT22;10463;52.378;9.688;2023-10-31T05:58:24;24.20;29.90
20610;DHT22;10463;52.378;9.688;2023-10-31T06:01:08;24.20;29.90
20610;DHT22;10463;52.378;9.688;2023-10-31T06:03:53;24.20;29.90
20610;DHT22;10463;52.378;9.688;2023-10-31T06:06:38;24.20;29.90
20610;DHT22;10463;52.378;9.688;2023-10-31T06:09:23;24.20;29.90
20610;DHT22;10463;52.378;9.688;2023-10-31T06:12:08;24.20;29.90
20610;DHT22;10463;52.378;9.688;2023-10-31T06:14:55;24.20;29.90
20610;DHT22;10463;52.378;9.688;2023-10-31T06:17:40;24.20;29.90
20610;DHT22;10463;52.378;9.688;2023-10-31T06:20:26;24.20;29.90
20610;DHT22;10463;52.378;9.688;2023-10-31T06:23:11;24.20;29.90
20610;DHT22;10463;52.378;9.688;2023-10-31T06:25:55;24.20;30.50
20610;DHT22;10463;52.378;9.688;2023-10-31T06:28:40;24.20;29.90
20610;DHT22;10463;52.378;9.688;2023-10-31T06:31:26;24.20;29.90
20610;DHT22;10463;52.378;9.688;2023-10-31T06:34:10;24.20;29.90
20610;DHT22;10463;52.378;9.688;2023-10-31T06:36:55;24.10;29.90
20610;DHT22;10463;52.378;9.688;2023-10-31T06:39:39;24.10;29.80
20610;DHT22;10463;52.378;9.688;2023-10-31T06:42:24;24.10;29.90
20610;DHT22;10463;52.378;9.688;2023-10-31T06:45:09;24.10;29.90
20610;DHT22;10463;52.378;9.688;2023-10-31T06:47:55;24.10;29.90
20610;DHT22;10463;52.378;9.688;2023-10-31T06:50:40;24.10;29.90
20610;DHT22;10463;52.378;9.688;2023-10-31T06:53:24;24.10;29.90
20610;DHT22;10463;52.378;9.688;2023-10-31T06:56:09;24.10;29.90
20610;DHT22;10463;52.378;9.688;2023-10-31T06:58:53;24.10;29.90
20610;DHT22;10463;52.378;9.688;2023-10-31T07:01:38;24.10;29.90
20610;DHT22;10463;52.378;9.688;2023-10-31T07:04:23;24.10;29.90
20610;DHT22;10463;52.378;9.688;2023-10-31T07:07:08;24.10;29.90
20610;DHT22;10463;52.378;9.688;2023-10-31T07:09:53;24.10;29.90
20610;DHT22;10463;52.378;9.688;2023-10-31T07:12:37;24.10;29.90
20610;DHT22;10463;52.378;9.688;2023-10-31T07:15:22;24.10;29.90
20610;DHT22;10463;52.378;9.688;2023-10-31T07:18:07;24.10;29.90
20610;DHT22;10463;52.378;9.688;2023-10-31T07:20:56;24.10;29.90
20610;DHT22;10463;52.378;9.688;2023-10-31T07:23:41;24.10;29.90
20610;DHT22;10463;52.378;9.688;2023-10-31T07:26:25;24.10;29.90
20610;DHT22;10463;52.378;9.688;2023-10-31T07:29:11;24.10;29.90
20610;DHT22;10463;52.378;9.688;2023-10-31T07:31:56;24.10;29.90
20610;DHT22;10463;52.378;9.688;2023-10-31T07:34:41;24.10;30.00
20610;DHT22;10463;52.378;9.688;2023-10-31T07:37:30;24.10;30.00
20610;DHT22;10463;52.378;9.688;2023-10-31T07:40:15;24.10;29.90
20610;DHT22;10463;52.378;9.688;2023-10-31T07:43:00;24.10;30.00
20610;DHT22;10463;52.378;9.688;2023-10-31T07:45:45;24.10;29.90
20610;DHT22;10463;52.378;9.688;2023-10-31T07:48:29;24.10;29.90
20610;DHT22;10463;52.378;9.688;2023-10-31T07:51:14;24.10;29.90
20610;DHT22;10463;52.378;9.688;2023-10-31T07:54:00;24.10;29.90
20610;DHT22;10463;52.378;9.688;2023-10-31T07:56:45;24.10;29.90
20610;DHT22;10463;52.378;9.688;2023-10-31T07:59:33;24.00;29.90
20610;DHT22;10463;52.378;9.688;2023-10-31T08:02:18;24.00;29.90
20610;DHT22;10463;52.378;9.688;2023-10-31T08:05:02;24.00;29.90
20610;DHT22;10463;52.378;9.688;2023-10-31T08:07:47;24.00;29.90
20610;DHT22;10463;52.378;9.688;2023-10-31T08:10:33;24.00;29.90
20610;DHT22;10463;52.378;9.688;2023-10-31T08:13:18;24.00;29.90
20610;DHT22;10463;52.378;9.688;2023-10-31T08:16:04;24.00;29.90
20610;DHT22;10463;52.378;9.688;2023-10-31T08:18:49;24.00;29.90
20610;DHT22;10463;52.378;9.688;2023-10-31T08:21:34;24.00;29.90
20610;DHT22;10463;52.378;9.688;2023-10-31T08:24:21;24.00;29.90
20610;DHT22;10463;52.378;9.688;2023-10-31T08:27:07;24.00;29.90
20610;DHT22;10463;52.378;9.688;2023-10-31T08:29:51;24.00;29.90
20610;DHT22;10463;52.378;9.688;2023-10-31T08:32:36;24.00;29.90
20610;DHT22;10463;52.378;9.688;2023-10-31T08:35:20;24.00;29.90
20610;DHT22;10463;52.378;9.688;2023-10-31T08:38:05;24.00;29.90
20610;DHT22;10463;52.378;9.688;2023-10-31T08:40:49;24.00;29.90
20610;DHT22;10463;52.378;9.688;2023-10-31T08:43:35;24.00;29.90
20610;DHT22;10463;52.378;9.688;2023-10-31T08:46:20;24.00;29.90
20610;DHT22;10463;52.378;9.688;2023-10-31T08:49:06;24.00;29.90
20610;DHT22;10463;52.378;9.688;2023-10-31T08:51:50;24.00;29.90
20610;DHT22;10463;52.378;9.688;2023-10-31T08:54:35;24.00;30.00
20610;DHT22;10463;52.378;9.688;2023-10-31T08:57:19;24.00;30.00
20610;DHT22;10463;52.378;9.688;2023-10-31T09:00:07;24.00;30.00
20610;DHT22;10463;52.378;9.688;2023-10-31T09:02:52;24.00;30.00
20610;DHT22;10463;52.378;9.688;2023-10-31T09:05:37;24.00;30.00
20610;DHT22;10463;52.378;9.688;2023-10-31T09:08:22;24.00;30.00
20610;DHT22;10463;52.378;9.688;2023-10-31T09:11:06;24.00;30.00
20610;DHT22;10463;52.378;9.688;2023-10-31T09:13:51;24.00;30.00
20610;DHT22;10463;52.378;9.688;2023-10-31T09:16:37;24.00;30.00
20610;DHT22;10463;52.378;9.688;2023-10-31T09:19:21;24.00;30.00
20610;DHT22;10463;52.378;9.688;2023-10-31T09:22:06;24.00;30.00
20610;DHT22;10463;52.378;9.688;2023-10-31T09:24:50;24.00;30.00
20610;DHT22;10463;52.378;9.688;2023-10-31T09:27:35;24.10;30.10
20610;DHT22;10463;52.378;9.688;2023-10-31T09:30:20;24.00;30.00
20610;DHT22;10463;52.378;9.688;2023-10-31T09:33:06;24.00;30.00
20610;DHT22;10463;52.378;9.688;2023-10-31T09:35:51;24.00;30.00
20610;DHT22;10463;52.378;9.688;2023-10-31T09:38:35;24.00;30.00
20610;DHT22;10463;52.378;9.688;2023-10-31T09:41:20;24.10;30.00
20610;DHT22;10463;52.378;9.688;2023-10-31T09:44:05;24.10;30.00
20610;DHT22;10463;52.378;9.688;2023-10-31T09:46:51;24.10;30.00
20610;DHT22;10463;52.378;9.688;2023-10-31T09:49:38;24.10;30.00
20610;DHT22;10463;52.378;9.688;2023-10-31T09:52:23;24.10;30.00
20610;DHT22;10463;52.378;9.688;2023-10-31T09:55:08;24.10;30.00
20610;DHT22;10463;52.378;9.688;2023-10-31T09:57:53;24.10;30.00
20610;DHT22;10463;52.378;9.688;2023-10-31T10:00:38;24.10;30.00
20610;DHT22;10463;52.378;9.688;2023-10-31T10:03:24;24.00;29.90
20610;DHT22;10463;52.378;9.688;2023-10-31T10:06:11;24.10;30.00
20610;DHT22;10463;52.378;9.688;2023-10-31T10:08:56;24.10;30.00
20610;DHT22;10463;52.378;9.688;2023-10-31T10:11:41;24.10;30.00
20610;DHT22;10463;52.378;9.688;2023-10-31T10:14:26;24.10;29.90
20610;DHT22;10463;52.378;9.688;2023-10-31T10:17:17;24.10;29.90
20610;DHT22;10463;52.378;9.688;2023-10-31T10:20:07;24.10;29.90
20610;DHT22;10463;52.378;9.688;2023-10-31T10:22:53;24.10;29.90
20610;DHT22;10463;52.378;9.688;2023-10-31T10:25:40;24.00;30.40
20610;DHT22;10463;52.378;9.688;2023-10-31T10:28:27;24.10;29.90
20610;DHT22;10463;52.378;9.688;2023-10-31T10:31:14;24.10;29.90
20610;DHT22;10463;52.378;9.688;2023-10-31T10:33:59;24.10;29.90
20610;DHT22;10463;52.378;9.688;2023-10-31T10:36:48;24.10;29.90
20610;DHT22;10463;52.378;9.688;2023-10-31T10:39:40;24.10;29.90
20610;DHT22;10463;52.378;9.688;2023-10-31T10:42:32;24.10;29.90
20610;DHT22;10463;52.378;9.688;2023-10-31T10:45:20;24.10;29.90
20610;DHT22;10463;52.378;9.688;2023-10-31T10:48:10;24.10;29.90
20610;DHT22;10463;52.378;9.688;2023-10-31T10:51:00;24.10;29.90
20610;DHT22;10463;52.378;9.688;2023-10-31T10:53:50;24.10;29.90
20610;DHT22;10463;52.378;9.688;2023-10-31T10:56:39;24.10;29.90
20610;DHT22;10463;52.378;9.688;2023-10-31T10:59:33;24.10;29.90
20610;DHT22;10463;52.378;9.688;2023-10-31T11:02:21;24.10;29.80
20610;DHT22;10463;52.378;9.688;2023-10-31T11:05:07;24.10;29.90
20610;DHT22;10463;52.378;9.688;2023-10-31T11:07:53;24.10;29.80
20610;DHT22;10463;52.378;9.688;2023-10-31T11:10:39;24.10;29.90
20610;DHT22;10463;52.378;9.688;2023-10-31T11:13:26;24.10;29.90
20610;DHT22;10463;52.378;9.688;2023-10-31T11:16:17;24.10;29.80
20610;DHT22;10463;52.378;9.688;2023-10-31T11:19:04;24.10;29.90
20610;DHT22;10463;52.378;9.688;2023-10-31T11:21:58;24.10;29.90
20610;DHT22;10463;52.378;9.688;2023-10-31T11:24:43;24.10;29.90
20610;DHT22;10463;52.378;9.688;2023-10-31T11:27:28;24.10;29.80
20610;DHT22;10463;52.378;9.688;2023-10-31T11:30:22;24.10;29.80
20610;DHT22;10463;52.378;9.688;2023-10-31T11:33:15;24.10;29.80
20610;DHT22;10463;52.378;9.688;2023-10-31T11:36:00;24.10;29.80
20610;DHT22;10463;52.378;9.688;2023-10-31T11:38:45;24.10;29.80
20610;DHT22;10463;52.378;9.688;2023-10-31T11:41:32;24.10;29.80
20610;DHT22;10463;52.378;9.688;2023-10-31T11:44:17;24.10;29.80
20610;DHT22;10463;52.378;9.688;2023-10-31T11:47:04;24.10;29.80
20610;DHT22;10463;52.378;9.688;2023-10-31T11:49:48;24.10;29.80
20610;DHT22;10463;52.378;9.688;2023-10-31T11:52:33;24.10;29.80
20610;DHT22;10463;52.378;9.688;2023-10-31T11:55:17;24.10;29.80
20610;DHT22;10463;52.378;9.688;2023-10-31T11:58:19;24.10;29.80
20610;DHT22;10463;52.378;9.688;2023-10-31T12:01:06;24.10;29.80
20610;DHT22;10463;52.378;9.688;2023-10-31T12:03:52;24.10;29.80
20610;DHT22;10463;52.378;9.688;2023-10-31T12:06:37;24.10;29.80
20610;DHT22;10463;52.378;9.688;2023-10-31T12:09:22;24.10;29.80
20610;DHT22;10463;52.378;9.688;2023-10-31T12:12:07;24.10;29.90
20610;DHT22;10463;52.378;9.688;2023-10-31T12:15:04;24.10;29.90
20610;DHT22;10463;52.378;9.688;2023-10-31T12:17:49;24.10;30.00
20610;DHT22;10463;52.378;9.688;2023-10-31T12:20:51;24.10;30.00
20610;DHT22;10463;52.378;9.688;2023-10-31T12:23:36;24.10;30.00
20610;DHT22;10463;52.378;9.688;2023-10-31T12:26:21;24.10;30.00
20610;DHT22;10463;52.378;9.688;2023-10-31T12:29:08;24.10;30.00
20610;DHT22;10463;52.378;9.688;2023-10-31T12:31:54;24.10;30.00
20610;DHT22;10463;52.378;9.688;2023-10-31T12:34:43;24.10;30.00
20610;DHT22;10463;52.378;9.688;2023-10-31T12:37:30;24.10;30.00
20610;DHT22;10463;52.378;9.688;2023-10-31T12:40:19;24.10;30.00
20610;DHT22;10463;52.378;9.688;2023-10-31T12:43:04;24.10;30.00
20610;DHT22;10463;52.378;9.688;2023-10-31T12:45:48;24.10;30.00
20610;DHT22;10463;52.378;9.688;2023-10-31T12:48:37;24.10;30.00
20610;DHT22;10463;52.378;9.688;2023-10-31T12:51:22;24.10;30.00
20610;DHT22;10463;52.378;9.688;2023-10-31T12:54:08;24.10;30.00
20610;DHT22;10463;52.378;9.688;2023-10-31T12:56:53;24.20;30.70
20610;DHT22;10463;52.378;9.688;2023-10-31T12:59:38;24.10;30.00
20610;DHT22;10463;52.378;9.688;2023-10-31T13:02:23;24.20;30.00
20610;DHT22;10463;52.378;9.688;2023-10-31T13:05:11;24.20;30.00
20610;DHT22;10463;52.378;9.688;2023-10-31T13:07:57;24.10;30.00
20610;DHT22;10463;52.378;9.688;2023-10-31T13:10:45;24.20;30.10
20610;DHT22;10463;52.378;9.688;2023-10-31T13:13:31;24.20;30.10
20610;DHT22;10463;52.378;9.688;2023-10-31T13:16:15;24.20;30.20
20610;DHT22;10463;52.378;9.688;2023-10-31T13:19:00;24.20;30.20
20610;DHT22;10463;52.378;9.688;2023-10-31T13:21:45;24.10;30.10
20610;DHT22;10463;52.378;9.688;2023-10-31T13:24:29;24.10;30.10
20610;DHT22;10463;52.378;9.688;2023-10-31T13:27:15;24.10;30.20
20610;DHT22;10463;52.378;9.688;2023-10-31T13:30:01;24.20;30.30
20610;DHT22;10463;52.378;9.688;2023-10-31T13:32:46;24.10;30.20
20610;DHT22;10463;52.378;9.688;2023-10-31T13:35:31;24.20;30.30
20610;DHT22;10463;52.378;9.688;2023-10-31T13:38:17;24.10;30.30
20610;DHT22;10463;52.378;9.688;2023-10-31T13:41:03;24.20;30.30
20610;DHT22;10463;52.378;9.688;2023-10-31T13:43:49;24.20;30.40
20610;DHT22;10463;52.378;9.688;2023-10-31T13:46:33;24.20;30.40
20610;DHT22;10463;52.378;9.688;2023-10-31T13:49:18;24.20;30.40
20610;DHT22;10463;52.378;9.688;2023-10-31T13:52:03;24.20;30.40
20610;DHT22;10463;52.378;9.688;2023-10-31T13:54:48;24.20;30.40
20610;DHT22;10463;52.378;9.688;2023-10-31T13:57:32;24.20;30.40
20610;DHT22;10463;52.378;9.688;2023-10-31T14:00:18;24.20;30.40
20610;DHT22;10463;52.378;9.688;2023-10-31T14:03:03;24.20;30.40
20610;DHT22;10463;52.378;9.688;2023-10-31T14:05:48;24.20;30.40
20610;DHT22;10463;52.378;9.688;2023-10-31T14:08:32;24.20;30.40
20610;DHT22;10463;52.378;9.688;2023-10-31T14:11:16;24.20;30.40
20610;DHT22;10463;52.378;9.688;2023-10-31T14:14:01;24.20;30.40
20610;DHT22;10463;52.378;9.688;2023-10-31T14:16:52;24.20;30.40
20610;DHT22;10463;52.378;9.688;2023-10-31T14:19:37;24.20;30.40
20610;DHT22;10463;52.378;9.688;2023-10-31T14:22:21;24.20;30.40
20610;DHT22;10463;52.378;9.688;2023-10-31T14:25:07;24.20;30.40
20610;DHT22;10463;52.378;9.688;2023-10-31T14:27:52;24.30;30.50
20610;DHT22;10463;52.378;9.688;2023-10-31T14:30:36;24.30;30.50
20610;DHT22;10463;52.378;9.688;2023-10-31T14:33:22;24.30;30.50
20610;DHT22;10463;52.378;9.688;2023-10-31T14:36:08;24.30;30.50
20610;DHT22;10463;52.378;9.688;2023-10-31T14:38:54;24.30;30.50
20610;DHT22;10463;52.378;9.688;2023-10-31T14:41:39;24.30;30.50
20610;DHT22;10463;52.378;9.688;2023-10-31T14:44:24;24.30;30.50
20610;DHT22;10463;52.378;9.688;2023-10-31T14:47:09;24.30;30.50
20610;DHT22;10463;52.378;9.688;2023-10-31T14:49:55;24.30;30.50
20610;DHT22;10463;52.378;9.688;2023-10-31T14:52:40;24.30;30.50
20610;DHT22;10463;52.378;9.688;2023-10-31T14:55:25;24.30;30.60
20610;DHT22;10463;52.378;9.688;2023-10-31T14:58:10;24.30;30.60
20610;DHT22;10463;52.378;9.688;2023-10-31T15:00:54;24.30;30.50
20610;DHT22;10463;52.378;9.688;2023-10-31T15:03:39;24.30;30.60
20610;DHT22;10463;52.378;9.688;2023-10-31T15:06:25;24.30;30.50
20610;DHT22;10463;52.378;9.688;2023-10-31T15:09:10;24.30;30.50
20610;DHT22;10463;52.378;9.688;2023-10-31T15:11:55;24.30;30.50
20610;DHT22;10463;52.378;9.688;2023-10-31T15:14:40;24.30;30.50
20610;DHT22;10463;52.378;9.688;2023-10-31T15:17:24;24.40;30.60
20610;DHT22;10463;52.378;9.688;2023-10-31T15:20:10;24.30;30.50
20610;DHT22;10463;52.378;9.688;2023-10-31T15:22:58;24.30;31.20
20610;DHT22;10463;52.378;9.688;2023-10-31T15:25:43;24.30;30.50
20610;DHT22;10463;52.378;9.688;2023-10-31T15:28:28;24.30;30.50
20610;DHT22;10463;52.378;9.688;2023-10-31T15:31:13;24.40;30.60
20610;DHT22;10463;52.378;9.688;2023-10-31T15:33:57;24.40;30.60
20610;DHT22;10463;52.378;9.688;2023-10-31T15:36:42;24.40;30.60
20610;DHT22;10463;52.378;9.688;2023-10-31T15:39:29;24.40;30.60
20610;DHT22;10463;52.378;9.688;2023-10-31T15:42:14;24.40;30.60
20610;DHT22;10463;52.378;9.688;2023-10-31T15:44:58;24.40;30.60
20610;DHT22;10463;52.378;9.688;2023-10-31T15:47:45;24.40;30.50
20610;DHT22;10463;52.378;9.688;2023-10-31T15:50:29;24.40;30.50
20610;DHT22;10463;52.378;9.688;2023-10-31T15:53:14;24.40;30.50
20610;DHT22;10463;52.378;9.688;2023-10-31T15:56:00;24.40;30.50
20610;DHT22;10463;52.378;9.688;2023-10-31T15:58:46;24.40;30.40
20610;DHT22;10463;52.378;9.688;2023-10-31T16:01:30;24.40;30.40
20610;DHT22;10463;52.378;9.688;2023-10-31T16:04:15;24.40;30.40
20610;DHT22;10463;52.378;9.688;2023-10-31T16:06:59;24.50;30.50
20610;DHT22;10463;52.378;9.688;2023-10-31T16:09:44;24.40;30.40
20610;DHT22;10463;52.378;9.688;2023-10-31T16:12:30;24.40;30.40
20610;DHT22;10463;52.378;9.688;2023-10-31T16:15:15;24.40;30.40
20610;DHT22;10463;52.378;9.688;2023-10-31T16:17:59;24.40;30.40
20610;DHT22;10463;52.378;9.688;2023-10-31T16:20:44;24.50;30.40
20610;DHT22;10463;52.378;9.688;2023-10-31T16:23:31;24.50;30.40
20610;DHT22;10463;52.378;9.688;2023-10-31T16:26:15;24.50;30.40
20610;DHT22;10463;52.378;9.688;2023-10-31T16:29:01;24.40;30.30
20610;DHT22;10463;52.378;9.688;2023-10-31T16:31:46;24.40;30.30
20610;DHT22;10463;52.378;9.688;2023-10-31T16:34:30;24.40;30.30
20610;DHT22;10463;52.378;9.688;2023-10-31T16:37:15;24.40;30.30
20610;DHT22;10463;52.378;9.688;2023-10-31T16:40:02;24.40;30.30
20610;DHT22;10463;52.378;9.688;2023-10-31T16:42:47;24.40;30.30
20610;DHT22;10463;52.378;9.688;2023-10-31T16:45:32;24.40;30.30
20610;DHT22;10463;52.378;9.688;2023-10-31T16:48:18;24.40;30.30
20610;DHT22;10463;52.378;9.688;2023-10-31T16:51:03;24.40;30.30
20610;DHT22;10463;52.378;9.688;2023-10-31T16:53:47;24.40;30.30
20610;DHT22;10463;52.378;9.688;2023-10-31T16:56:33;24.40;30.30
20610;DHT22;10463;52.378;9.688;2023-10-31T16:59:17;24.40;30.30
20610;DHT22;10463;52.378;9.688;2023-10-31T17:02:03;24.40;30.30
20610;DHT22;10463;52.378;9.688;2023-10-31T17:04:48;24.40;30.30
20610;DHT22;10463;52.378;9.688;2023-10-31T17:07:33;24.40;30.30
20610;DHT22;10463;52.378;9.688;2023-10-31T17:10:17;24.30;30.20
20610;DHT22;10463;52.378;9.688;2023-10-31T17:13:02;24.40;30.30
20610;DHT22;10463;52.378;9.688;2023-10-31T17:15:48;24.40;30.30
20610;DHT22;10463;52.378;9.688;2023-10-31T17:18:33;24.40;30.30
20610;DHT22;10463;52.378;9.688;2023-10-31T17:21:18;24.40;30.30
20610;DHT22;10463;52.378;9.688;2023-10-31T17:24:04;24.30;30.30
20610;DHT22;10463;52.378;9.688;2023-10-31T17:26:49;24.30;30.20